sensor_id;sensor_type;location;lat;lon;timestamp;P1;durP1;ratioP1;P2;durP2;ratioP2
56629;SDS011;42502;40.732;-74.254;2023-04-28T00:01:38;6.97;;;4.00;;
56629;SDS011;42502;40.732;-74.254;2023-04-28T00:03:39;6.00;;;3.92;;
56629;SDS011;42502;40.732;-74.254;2023-04-28T00:05:40;5.13;;;3.70;;
56629;SDS011;42502;40.732;-74.254;2023-04-28T00:07:41;6.72;;;3.47;;
56629;SDS011;42502;40.732;-74.254;2023-04-28T00:09:42;3.90;;;3.53;;
56629;SDS011;42502;40.732;-74.254;2023-04-28T00:11:49;3.80;;;3.33;;
56629;SDS011;42502;40.732;-74.254;2023-04-28T00:13:49;5.90;;;3.63;;
56629;SDS011;42502;40.732;-74.254;2023-04-28T00:15:51;6.63;;;3.50;;
56629;SDS011;42502;40.732;-74.254;2023-04-28T00:17:52;4.13;;;3.20;;
56629;SDS011;42502;40.732;-74.254;2023-04-28T00:19:53;8.00;;;3.03;;
56629;SDS011;42502;40.732;-74.254;2023-04-28T00:21:57;4.53;;;3.03;;
56629;SDS011;42502;40.732;-74.254;2023-04-28T00:23:58;7.10;;;3.38;;
56629;SDS011;42502;40.732;-74.254;2023-04-28T00:25:58;8.45;;;2.88;;
56629;SDS011;42502;40.732;-74.254;2023-04-28T00:27:59;5.35;;;3.25;;
56629;SDS011;42502;40.732;-74.254;2023-04-28T00:30:00;6.32;;;2.58;;
56629;SDS011;42502;40.732;-74.254;2023-04-28T00:32:08;6.22;;;2.45;;
56629;SDS011;42502;40.732;-74.254;2023-04-28T00:34:09;4.65;;;2.38;;
56629;SDS011;42502;40.732;-74.254;2023-04-28T00:36:13;6.13;;;2.40;;
56629;SDS011;42502;40.732;-74.254;2023-04-28T00:38:14;6.45;;;2.47;;
56629;SDS011;42502;40.732;-74.254;2023-04-28T00:40:15;2.78;;;2.58;;
56629;SDS011;42502;40.732;-74.254;2023-04-28T00:42:18;3.80;;;2.22;;
56629;SDS011;42502;40.732;-74.254;2023-04-28T00:44:19;3.70;;;2.05;;
56629;SDS011;42502;40.732;-74.254;2023-04-28T00:46:23;3.83;;;1.80;;
56629;SDS011;42502;40.732;-74.254;2023-04-28T00:48:28;5.90;;;2.13;;
56629;SDS011;42502;40.732;-74.254;2023-04-28T00:50:29;3.72;;;2.03;;
56629;SDS011;42502;40.732;-74.254;2023-04-28T00:52:30;5.10;;;2.03;;
56629;SDS011;42502;40.732;-74.254;2023-04-28T00:54:34;4.88;;;1.70;;
56629;SDS011;42502;40.732;-74.254;2023-04-28T00:56:37;4.30;;;2.00;;
56629;SDS011;42502;40.732;-74.254;2023-04-28T00:58:38;3.55;;;1.70;;
56629;SDS011;42502;40.732;-74.254;2023-04-28T01:00:39;2.63;;;1.70;;
56629;SDS011;42502;40.732;-74.254;2023-04-28T01:02:40;4.03;;;1.77;;
56629;SDS011;42502;40.732;-74.254;2023-04-28T01:04:44;2.58;;;1.45;;
56629;SDS011;42502;40.732;-74.254;2023-04-28T01:06:46;5.05;;;1.52;;
56629;SDS011;42502;40.732;-74.254;2023-04-28T01:08:48;5.45;;;1.58;;
56629;SDS011;42502;40.732;-74.254;2023-04-28T01:10:55;1.48;;;1.20;;
56629;SDS011;42502;40.732;-74.254;2023-04-28T01:12:56;3.97;;;1.30;;
56629;SDS011;42502;40.732;-74.254;2023-04-28T01:14:57;2.50;;;1.30;;
56629;SDS011;42502;40.732;-74.254;2023-04-28T01:17:01;2.63;;;1.23;;
56629;SDS011;42502;40.732;-74.254;2023-04-28T01:19:11;1.77;;;1.27;;
56629;SDS011;42502;40.732;-74.254;2023-04-28T01:21:27;1.45;;;1.30;;
56629;SDS011;42502;40.732;-74.254;2023-04-28T01:23:32;1.20;;;1.02;;
56629;SDS011;42502;40.732;-74.254;2023-04-28T01:25:33;1.98;;;1.20;;
56629;SDS011;42502;40.732;-74.254;2023-04-28T01:27:36;2.70;;;1.05;;
56629;SDS011;42502;40.732;-74.254;2023-04-28T01:29:37;3.28;;;1.20;;
56629;SDS011;42502;40.732;-74.254;2023-04-28T01:31:38;2.22;;;1.15;;
56629;SDS011;42502;40.732;-74.254;2023-04-28T01:33:39;1.23;;;1.02;;
56629;SDS011;42502;40.732;-74.254;2023-04-28T01:35:43;2.45;;;1.00;;
56629;SDS011;42502;40.732;-74.254;2023-04-28T01:37:43;1.25;;;1.08;;
56629;SDS011;42502;40.732;-74.254;2023-04-28T01:39:45;2.65;;;1.20;;
56629;SDS011;42502;40.732;-74.254;2023-04-28T01:41:45;2.05;;;1.00;;
56629;SDS011;42502;40.732;-74.254;2023-04-28T01:43:46;2.47;;;0.82;;
56629;SDS011;42502;40.732;-74.254;2023-04-28T01:45:47;1.42;;;1.00;;
56629;SDS011;42502;40.732;-74.254;2023-04-28T01:47:48;1.38;;;0.95;;
56629;SDS011;42502;40.732;-74.254;2023-04-28T01:49:49;1.80;;;0.82;;
56629;SDS011;42502;40.732;-74.254;2023-04-28T01:51:50;1.38;;;0.90;;
56629;SDS011;42502;40.732;-74.254;2023-04-28T01:53:51;1.45;;;0.85;;
56629;SDS011;42502;40.732;-74.254;2023-04-28T01:55:52;1.00;;;0.90;;
56629;SDS011;42502;40.732;-74.254;2023-04-28T01:57:57;3.00;;;1.10;;
56629;SDS011;42502;40.732;-74.254;2023-04-28T02:00:01;3.78;;;1.10;;
56629;SDS011;42502;40.732;-74.254;2023-04-28T02:02:04;2.90;;;0.90;;
56629;SDS011;42502;40.732;-74.254;2023-04-28T02:04:04;1.83;;;0.80;;
56629;SDS011;42502;40.732;-74.254;2023-04-28T02:06:05;2.95;;;1.00;;
56629;SDS011;42502;40.732;-74.254;2023-04-28T02:08:06;1.90;;;1.00;;
56629;SDS011;42502;40.732;-74.254;2023-04-28T02:10:10;5.68;;;0.90;;
56629;SDS011;42502;40.732;-74.254;2023-04-28T02:12:12;2.72;;;0.90;;
56629;SDS011;42502;40.732;-74.254;2023-04-28T02:14:12;4.00;;;0.90;;
56629;SDS011;42502;40.732;-74.254;2023-04-28T02:16:13;2.70;;;0.85;;
56629;SDS011;42502;40.732;-74.254;2023-04-28T02:18:17;3.75;;;1.00;;
56629;SDS011;42502;40.732;-74.254;2023-04-28T02:20:18;4.57;;;0.80;;
56629;SDS011;42502;40.732;-74.254;2023-04-28T02:22:18;5.70;;;0.88;;
56629;SDS011;42502;40.732;-74.254;2023-04-28T02:24:19;3.80;;;0.80;;
56629;SDS011;42502;40.732;-74.254;2023-04-28T02:26:25;6.50;;;1.02;;
56629;SDS011;42502;40.732;-74.254;2023-04-28T02:28:26;3.35;;;0.85;;
56629;SDS011;42502;40.732;-74.254;2023-04-28T02:30:28;2.45;;;0.70;;
56629;SDS011;42502;40.732;-74.254;2023-04-28T02:32:32;4.05;;;0.68;;
56629;SDS011;42502;40.732;-74.254;2023-04-28T02:34:33;7.70;;;0.93;;
56629;SDS011;42502;40.732;-74.254;2023-04-28T02:36:34;3.38;;;0.88;;
56629;SDS011;42502;40.732;-74.254;2023-04-28T02:38:35;1.95;;;0.77;;
56629;SDS011;42502;40.732;-74.254;2023-04-28T02:40:42;2.65;;;0.70;;
56629;SDS011;42502;40.732;-74.254;2023-04-28T02:42:43;4.85;;;0.90;;
56629;SDS011;42502;40.732;-74.254;2023-04-28T02:44:44;7.68;;;0.80;;
56629;SDS011;42502;40.732;-74.254;2023-04-28T02:46:45;6.35;;;0.70;;
56629;SDS011;42502;40.732;-74.254;2023-04-28T02:48:46;5.10;;;0.80;;
56629;SDS011;42502;40.732;-74.254;2023-04-28T02:50:50;3.55;;;1.00;;
56629;SDS011;42502;40.732;-74.254;2023-04-28T02:52:52;4.40;;;0.75;;
56629;SDS011;42502;40.732;-74.254;2023-04-28T02:54:52;2.83;;;0.90;;
56629;SDS011;42502;40.732;-74.254;2023-04-28T02:56:56;2.90;;;0.75;;
56629;SDS011;42502;40.732;-74.254;2023-04-28T02:58:57;3.47;;;0.90;;
56629;SDS011;42502;40.732;-74.254;2023-04-28T03:01:01;3.33;;;0.73;;
56629;SDS011;42502;40.732;-74.254;2023-04-28T03:03:02;2.05;;;0.70;;
56629;SDS011;42502;40.732;-74.254;2023-04-28T03:05:03;1.58;;;0.75;;
56629;SDS011;42502;40.732;-74.254;2023-04-28T03:07:04;2.60;;;0.85;;
56629;SDS011;42502;40.732;-74.254;2023-04-28T03:09:05;1.05;;;0.80;;
56629;SDS011;42502;40.732;-74.254;2023-04-28T03:11:07;3.08;;;0.77;;
56629;SDS011;42502;40.732;-74.254;2023-04-28T03:13:08;5.60;;;0.88;;
56629;SDS011;42502;40.732;-74.254;2023-04-28T03:15:09;4.18;;;0.77;;
56629;SDS011;42502;40.732;-74.254;2023-04-28T03:17:10;5.70;;;0.73;;
56629;SDS011;42502;40.732;-74.254;2023-04-28T03:19:13;5.40;;;0.80;;
56629;SDS011;42502;40.732;-74.254;2023-04-28T03:21:14;4.07;;;0.68;;
56629;SDS011;42502;40.732;-74.254;2023-04-28T03:23:15;4.28;;;0.70;;
56629;SDS011;42502;40.732;-74.254;2023-04-28T03:25:16;2.20;;;0.65;;
56629;SDS011;42502;40.732;-74.254;2023-04-28T03:27:16;1.60;;;0.77;;
56629;SDS011;42502;40.732;-74.254;2023-04-28T03:29:17;2.08;;;0.65;;
56629;SDS011;42502;40.732;-74.254;2023-04-28T03:31:18;5.38;;;0.70;;
56629;SDS011;42502;40.732;-74.254;2023-04-28T03:33:19;2.10;;;0.70;;
56629;SDS011;42502;40.732;-74.254;2023-04-28T03:35:20;2.15;;;0.70;;
56629;SDS011;42502;40.732;-74.254;2023-04-28T03:37:21;2.08;;;0.60;;
56629;SDS011;42502;40.732;-74.254;2023-04-28T03:39:22;3.00;;;0.80;;
56629;SDS011;42502;40.732;-74.254;2023-04-28T03:41:23;2.60;;;0.70;;
56629;SDS011;42502;40.732;-74.254;2023-04-28T03:43:24;2.63;;;0.60;;
56629;SDS011;42502;40.732;-74.254;2023-04-28T03:45:25;2.53;;;0.70;;
56629;SDS011;42502;40.732;-74.254;2023-04-28T03:47:26;2.55;;;0.60;;
56629;SDS011;42502;40.732;-74.254;2023-04-28T03:49:27;3.00;;;0.80;;
56629;SDS011;42502;40.732;-74.254;2023-04-28T03:51:28;3.38;;;0.77;;
56629;SDS011;42502;40.732;-74.254;2023-04-28T03:53:29;2.30;;;0.73;;
56629;SDS011;42502;40.732;-74.254;2023-04-28T03:55:30;1.80;;;0.60;;
56629;SDS011;42502;40.732;-74.254;2023-04-28T03:57:31;3.75;;;0.70;;
56629;SDS011;42502;40.732;-74.254;2023-04-28T03:59:31;1.40;;;0.60;;
56629;SDS011;42502;40.732;-74.254;2023-04-28T04:01:32;2.85;;;0.57;;
56629;SDS011;42502;40.732;-74.254;2023-04-28T04:03:33;2.67;;;0.60;;
56629;SDS011;42502;40.732;-74.254;2023-04-28T04:05:34;1.77;;;0.60;;
56629;SDS011;42502;40.732;-74.254;2023-04-28T04:07:35;3.97;;;0.60;;
56629;SDS011;42502;40.732;-74.254;2023-04-28T04:09:36;1.50;;;0.80;;
56629;SDS011;42502;40.732;-74.254;2023-04-28T04:11:36;1.38;;;0.60;;
56629;SDS011;42502;40.732;-74.254;2023-04-28T04:13:37;2.25;;;0.85;;
56629;SDS011;42502;40.732;-74.254;2023-04-28T04:15:38;1.35;;;0.70;;
56629;SDS011;42502;40.732;-74.254;2023-04-28T04:17:39;1.40;;;0.68;;
56629;SDS011;42502;40.732;-74.254;2023-04-28T04:19:40;4.50;;;0.68;;
56629;SDS011;42502;40.732;-74.254;2023-04-28T04:21:41;1.88;;;0.70;;
56629;SDS011;42502;40.732;-74.254;2023-04-28T04:23:42;1.08;;;0.60;;
56629;SDS011;42502;40.732;-74.254;2023-04-28T04:25:43;0.75;;;0.60;;
56629;SDS011;42502;40.732;-74.254;2023-04-28T04:27:44;1.25;;;0.52;;
56629;SDS011;42502;40.732;-74.254;2023-04-28T04:29:45;2.40;;;0.60;;
56629;SDS011;42502;40.732;-74.254;2023-04-28T04:31:48;2.28;;;0.75;;
56629;SDS011;42502;40.732;-74.254;2023-04-28T04:33:49;1.00;;;0.60;;
56629;SDS011;42502;40.732;-74.254;2023-04-28T04:35:50;1.20;;;0.60;;
56629;SDS011;42502;40.732;-74.254;2023-04-28T04:37:52;1.02;;;0.50;;
56629;SDS011;42502;40.732;-74.254;2023-04-28T04:39:53;2.05;;;0.60;;
56629;SDS011;42502;40.732;-74.254;2023-04-28T04:41:57;3.15;;;0.60;;
56629;SDS011;42502;40.732;-74.254;2023-04-28T04:43:58;0.93;;;0.60;;
56629;SDS011;42502;40.732;-74.254;2023-04-28T04:45:58;1.50;;;0.63;;
56629;SDS011;42502;40.732;-74.254;2023-04-28T04:47:59;1.60;;;0.68;;
56629;SDS011;42502;40.732;-74.254;2023-04-28T04:50:01;2.83;;;0.70;;
56629;SDS011;42502;40.732;-74.254;2023-04-28T04:52:02;1.67;;;0.60;;
56629;SDS011;42502;40.732;-74.254;2023-04-28T04:54:03;1.35;;;0.68;;
56629;SDS011;42502;40.732;-74.254;2023-04-28T04:56:04;2.13;;;0.70;;
56629;SDS011;42502;40.732;-74.254;2023-04-28T04:58:05;0.90;;;0.65;;
56629;SDS011;42502;40.732;-74.254;2023-04-28T05:00:06;1.20;;;0.57;;
56629;SDS011;42502;40.732;-74.254;2023-04-28T05:02:08;0.90;;;0.60;;
56629;SDS011;42502;40.732;-74.254;2023-04-28T05:04:08;0.90;;;0.50;;
56629;SDS011;42502;40.732;-74.254;2023-04-28T05:06:10;1.73;;;0.50;;
56629;SDS011;42502;40.732;-74.254;2023-04-28T05:08:11;1.33;;;0.70;;
56629;SDS011;42502;40.732;-74.254;2023-04-28T05:10:12;1.25;;;0.60;;
56629;SDS011;42502;40.732;-74.254;2023-04-28T05:12:13;0.80;;;0.50;;
56629;SDS011;42502;40.732;-74.254;2023-04-28T05:14:14;1.63;;;0.50;;
56629;SDS011;42502;40.732;-74.254;2023-04-28T05:16:15;0.90;;;0.60;;
56629;SDS011;42502;40.732;-74.254;2023-04-28T05:18:16;1.98;;;0.60;;
56629;SDS011;42502;40.732;-74.254;2023-04-28T05:20:17;0.65;;;0.50;;
56629;SDS011;42502;40.732;-74.254;2023-04-28T05:22:18;1.48;;;0.60;;
56629;SDS011;42502;40.732;-74.254;2023-04-28T05:24:22;1.00;;;0.60;;
56629;SDS011;42502;40.732;-74.254;2023-04-28T05:26:23;1.05;;;0.57;;
56629;SDS011;42502;40.732;-74.254;2023-04-28T05:28:24;0.93;;;0.50;;
56629;SDS011;42502;40.732;-74.254;2023-04-28T05:30:25;1.48;;;0.60;;
56629;SDS011;42502;40.732;-74.254;2023-04-28T05:32:25;1.92;;;0.57;;
56629;SDS011;42502;40.732;-74.254;2023-04-28T05:34:26;1.10;;;0.60;;
56629;SDS011;42502;40.732;-74.254;2023-04-28T05:36:27;0.68;;;0.50;;
56629;SDS011;42502;40.732;-74.254;2023-04-28T05:38:28;0.98;;;0.60;;
56629;SDS011;42502;40.732;-74.254;2023-04-28T05:40:31;2.10;;;0.60;;
56629;SDS011;42502;40.732;-74.254;2023-04-28T05:42:31;3.85;;;0.65;;
56629;SDS011;42502;40.732;-74.254;2023-04-28T05:44:32;1.83;;;0.63;;
56629;SDS011;42502;40.732;-74.254;2023-04-28T05:46:33;1.50;;;0.60;;
56629;SDS011;42502;40.732;-74.254;2023-04-28T05:48:35;0.65;;;0.57;;
56629;SDS011;42502;40.732;-74.254;2023-04-28T05:50:36;1.42;;;0.57;;
56629;SDS011;42502;40.732;-74.254;2023-04-28T05:52:37;0.90;;;0.60;;
56629;SDS011;42502;40.732;-74.254;2023-04-28T05:54:38;1.08;;;0.60;;
56629;SDS011;42502;40.732;-74.254;2023-04-28T05:56:39;0.60;;;0.50;;
56629;SDS011;42502;40.732;-74.254;2023-04-28T05:58:40;1.08;;;0.45;;
56629;SDS011;42502;40.732;-74.254;2023-04-28T06:00:43;2.08;;;0.63;;
56629;SDS011;42502;40.732;-74.254;2023-04-28T06:02:44;1.63;;;0.65;;
56629;SDS011;42502;40.732;-74.254;2023-04-28T06:04:45;0.65;;;0.50;;
56629;SDS011;42502;40.732;-74.254;2023-04-28T06:06:46;0.95;;;0.70;;
56629;SDS011;42502;40.732;-74.254;2023-04-28T06:08:47;0.70;;;0.50;;
56629;SDS011;42502;40.732;-74.254;2023-04-28T06:10:47;0.65;;;0.50;;
56629;SDS011;42502;40.732;-74.254;2023-04-28T06:12:48;1.25;;;0.60;;
56629;SDS011;42502;40.732;-74.254;2023-04-28T06:14:49;0.77;;;0.60;;
56629;SDS011;42502;40.732;-74.254;2023-04-28T06:16:52;0.60;;;0.52;;
56629;SDS011;42502;40.732;-74.254;2023-04-28T06:18:53;0.57;;;0.50;;
56629;SDS011;42502;40.732;-74.254;2023-04-28T06:20:54;1.10;;;0.60;;
56629;SDS011;42502;40.732;-74.254;2023-04-28T06:22:55;0.88;;;0.50;;
56629;SDS011;42502;40.732;-74.254;2023-04-28T06:24:55;1.70;;;0.70;;
56629;SDS011;42502;40.732;-74.254;2023-04-28T06:26:56;0.85;;;0.52;;
56629;SDS011;42502;40.732;-74.254;2023-04-28T06:28:57;0.98;;;0.50;;
56629;SDS011;42502;40.732;-74.254;2023-04-28T06:30:58;0.65;;;0.50;;
56629;SDS011;42502;40.732;-74.254;2023-04-28T06:32:59;1.92;;;0.55;;
56629;SDS011;42502;40.732;-74.254;2023-04-28T06:35:00;2.00;;;0.60;;
56629;SDS011;42502;40.732;-74.254;2023-04-28T06:37:00;0.90;;;0.52;;
56629;SDS011;42502;40.732;-74.254;2023-04-28T06:39:01;0.70;;;0.60;;
56629;SDS011;42502;40.732;-74.254;2023-04-28T06:41:02;0.60;;;0.50;;
56629;SDS011;42502;40.732;-74.254;2023-04-28T06:43:03;1.27;;;0.57;;
56629;SDS011;42502;40.732;-74.254;2023-04-28T06:45:05;0.82;;;0.60;;
56629;SDS011;42502;40.732;-74.254;2023-04-28T06:47:06;0.63;;;0.60;;
56629;SDS011;42502;40.732;-74.254;2023-04-28T06:49:07;0.70;;;0.50;;
56629;SDS011;42502;40.732;-74.254;2023-04-28T06:51:07;0.60;;;0.52;;
56629;SDS011;42502;40.732;-74.254;2023-04-28T06:53:08;1.42;;;0.60;;
56629;SDS011;42502;40.732;-74.254;2023-04-28T06:55:12;1.95;;;0.60;;
56629;SDS011;42502;40.732;-74.254;2023-04-28T06:57:15;0.90;;;0.60;;
56629;SDS011;42502;40.732;-74.254;2023-04-28T06:59:16;0.65;;;0.60;;
56629;SDS011;42502;40.732;-74.254;2023-04-28T07:01:17;1.33;;;0.52;;
56629;SDS011;42502;40.732;-74.254;2023-04-28T07:03:18;1.13;;;0.60;;
56629;SDS011;42502;40.732;-74.254;2023-04-28T07:05:19;0.68;;;0.60;;
56629;SDS011;42502;40.732;-74.254;2023-04-28T07:07:20;2.28;;;0.65;;
56629;SDS011;42502;40.732;-74.254;2023-04-28T07:09:21;1.38;;;0.60;;
56629;SDS011;42502;40.732;-74.254;2023-04-28T07:11:22;0.90;;;0.55;;
56629;SDS011;42502;40.732;-74.254;2023-04-28T07:13:22;1.23;;;0.60;;
56629;SDS011;42502;40.732;-74.254;2023-04-28T07:15:24;1.05;;;0.80;;
56629;SDS011;42502;40.732;-74.254;2023-04-28T07:17:25;0.90;;;0.55;;
56629;SDS011;42502;40.732;-74.254;2023-04-28T07:19:26;0.85;;;0.50;;
56629;SDS011;42502;40.732;-74.254;2023-04-28T07:21:27;1.02;;;0.60;;
56629;SDS011;42502;40.732;-74.254;2023-04-28T07:23:27;1.00;;;0.52;;
56629;SDS011;42502;40.732;-74.254;2023-04-28T07:25:28;2.95;;;0.50;;
56629;SDS011;42502;40.732;-74.254;2023-04-28T07:27:29;0.68;;;0.52;;
56629;SDS011;42502;40.732;-74.254;2023-04-28T07:29:30;1.10;;;0.68;;
56629;SDS011;42502;40.732;-74.254;2023-04-28T07:31:33;1.17;;;0.60;;
56629;SDS011;42502;40.732;-74.254;2023-04-28T07:33:34;1.85;;;0.60;;
56629;SDS011;42502;40.732;-74.254;2023-04-28T07:35:35;1.52;;;0.70;;
56629;SDS011;42502;40.732;-74.254;2023-04-28T07:37:36;0.93;;;0.52;;
56629;SDS011;42502;40.732;-74.254;2023-04-28T07:39:37;1.35;;;0.50;;
56629;SDS011;42502;40.732;-74.254;2023-04-28T07:41:39;0.93;;;0.60;;
56629;SDS011;42502;40.732;-74.254;2023-04-28T07:43:40;0.73;;;0.50;;
56629;SDS011;42502;40.732;-74.254;2023-04-28T07:45:41;1.27;;;0.60;;
56629;SDS011;42502;40.732;-74.254;2023-04-28T07:47:44;0.93;;;0.52;;
56629;SDS011;42502;40.732;-74.254;2023-04-28T07:49:45;4.70;;;0.70;;
56629;SDS011;42502;40.732;-74.254;2023-04-28T07:51:46;2.15;;;0.68;;
56629;SDS011;42502;40.732;-74.254;2023-04-28T07:53:47;2.55;;;0.68;;
56629;SDS011;42502;40.732;-74.254;2023-04-28T07:55:47;0.70;;;0.52;;
56629;SDS011;42502;40.732;-74.254;2023-04-28T07:57:48;0.50;;;0.50;;
56629;SDS011;42502;40.732;-74.254;2023-04-28T07:59:49;1.55;;;0.50;;
56629;SDS011;42502;40.732;-74.254;2023-04-28T08:01:50;2.15;;;0.55;;
56629;SDS011;42502;40.732;-74.254;2023-04-28T08:03:51;1.30;;;0.55;;
56629;SDS011;42502;40.732;-74.254;2023-04-28T08:05:52;0.57;;;0.50;;
56629;SDS011;42502;40.732;-74.254;2023-04-28T08:07:53;2.00;;;0.68;;
56629;SDS011;42502;40.732;-74.254;2023-04-28T08:09:54;1.15;;;0.60;;
56629;SDS011;42502;40.732;-74.254;2023-04-28T08:11:55;1.13;;;0.57;;
56629;SDS011;42502;40.732;-74.254;2023-04-28T08:13:55;0.60;;;0.50;;
56629;SDS011;42502;40.732;-74.254;2023-04-28T08:16:00;2.10;;;0.70;;
56629;SDS011;42502;40.732;-74.254;2023-04-28T08:18:01;1.23;;;0.50;;
56629;SDS011;42502;40.732;-74.254;2023-04-28T08:20:02;2.33;;;0.80;;
56629;SDS011;42502;40.732;-74.254;2023-04-28T08:22:04;2.40;;;0.60;;
56629;SDS011;42502;40.732;-74.254;2023-04-28T08:24:06;1.42;;;0.60;;
56629;SDS011;42502;40.732;-74.254;2023-04-28T08:26:09;2.75;;;0.60;;
56629;SDS011;42502;40.732;-74.254;2023-04-28T08:28:10;2.05;;;0.60;;
56629;SDS011;42502;40.732;-74.254;2023-04-28T08:30:11;0.63;;;0.50;;
56629;SDS011;42502;40.732;-74.254;2023-04-28T08:32:12;0.60;;;0.50;;
56629;SDS011;42502;40.732;-74.254;2023-04-28T08:34:13;0.70;;;0.60;;
56629;SDS011;42502;40.732;-74.254;2023-04-28T08:36:14;1.45;;;0.57;;
56629;SDS011;42502;40.732;-74.254;2023-04-28T08:38:15;0.50;;;0.50;;
56629;SDS011;42502;40.732;-74.254;2023-04-28T08:40:17;1.20;;;0.60;;
56629;SDS011;42502;40.732;-74.254;2023-04-28T08:42:18;0.88;;;0.60;;
56629;SDS011;42502;40.732;-74.254;2023-04-28T08:44:19;1.35;;;0.63;;
56629;SDS011;42502;40.732;-74.254;2023-04-28T08:46:22;0.60;;;0.50;;
56629;SDS011;42502;40.732;-74.254;2023-04-28T08:48:26;1.35;;;0.50;;
56629;SDS011;42502;40.732;-74.254;2023-04-28T08:50:31;1.17;;;0.60;;
56629;SDS011;42502;40.732;-74.254;2023-04-28T08:52:35;1.05;;;0.70;;
56629;SDS011;42502;40.732;-74.254;2023-04-28T08:54:37;1.45;;;0.68;;
56629;SDS011;42502;40.732;-74.254;2023-04-28T08:56:39;0.73;;;0.70;;
56629;SDS011;42502;40.732;-74.254;2023-04-28T08:58:44;1.38;;;0.60;;
56629;SDS011;42502;40.732;-74.254;2023-04-28T09:00:45;1.33;;;0.77;;
56629;SDS011;42502;40.732;-74.254;2023-04-28T09:02:46;0.95;;;0.50;;
56629;SDS011;42502;40.732;-74.254;2023-04-28T09:04:47;0.95;;;0.60;;
56629;SDS011;42502;40.732;-74.254;2023-04-28T09:06:47;0.90;;;0.70;;
56629;SDS011;42502;40.732;-74.254;2023-04-28T09:08:48;1.67;;;0.70;;
56629;SDS011;42502;40.732;-74.254;2023-04-28T09:11:08;0.85;;;0.60;;
56629;SDS011;42502;40.732;-74.254;2023-04-28T09:13:10;0.90;;;0.70;;
56629;SDS011;42502;40.732;-74.254;2023-04-28T09:15:25;1.88;;;0.65;;
56629;SDS011;42502;40.732;-74.254;2023-04-28T09:17:26;0.73;;;0.60;;
56629;SDS011;42502;40.732;-74.254;2023-04-28T09:19:34;1.20;;;0.77;;
56629;SDS011;42502;40.732;-74.254;2023-04-28T09:21:48;0.70;;;0.50;;
56629;SDS011;42502;40.732;-74.254;2023-04-28T09:23:56;0.82;;;0.60;;
56629;SDS011;42502;40.732;-74.254;2023-04-28T09:28:08;1.00;;;0.60;;
56629;SDS011;42502;40.732;-74.254;2023-04-28T09:30:19;1.45;;;0.57;;
56629;SDS011;42502;40.732;-74.254;2023-04-28T09:32:41;1.65;;;0.57;;
56629;SDS011;42502;40.732;-74.254;2023-04-28T09:34:43;0.90;;;0.68;;
56629;SDS011;42502;40.732;-74.254;2023-04-28T09:36:46;0.85;;;0.70;;
56629;SDS011;42502;40.732;-74.254;2023-04-28T09:38:47;1.00;;;0.63;;
56629;SDS011;42502;40.732;-74.254;2023-04-28T09:40:52;0.70;;;0.52;;
56629;SDS011;42502;40.732;-74.254;2023-04-28T09:42:57;1.48;;;0.60;;
56629;SDS011;42502;40.732;-74.254;2023-04-28T09:44:58;1.73;;;0.70;;
56629;SDS011;42502;40.732;-74.254;2023-04-28T09:47:03;1.30;;;0.60;;
56629;SDS011;42502;40.732;-74.254;2023-04-28T09:49:21;1.55;;;0.75;;
56629;SDS011;42502;40.732;-74.254;2023-04-28T09:51:22;1.30;;;0.80;;
56629;SDS011;42502;40.732;-74.254;2023-04-28T09:53:25;0.77;;;0.65;;
56629;SDS011;42502;40.732;-74.254;2023-04-28T09:55:26;1.00;;;0.68;;
56629;SDS011;42502;40.732;-74.254;2023-04-28T09:57:30;0.80;;;0.57;;
56629;SDS011;42502;40.732;-74.254;2023-04-28T09:59:32;1.00;;;0.80;;
56629;SDS011;42502;40.732;-74.254;2023-04-28T10:01:36;1.13;;;0.60;;
56629;SDS011;42502;40.732;-74.254;2023-04-28T10:03:39;0.70;;;0.60;;
56629;SDS011;42502;40.732;-74.254;2023-04-28T10:05:42;1.98;;;0.60;;
56629;SDS011;42502;40.732;-74.254;2023-04-28T10:07:43;0.85;;;0.63;;
56629;SDS011;42502;40.732;-74.254;2023-04-28T10:09:44;1.55;;;0.65;;
56629;SDS011;42502;40.732;-74.254;2023-04-28T10:11:49;0.90;;;0.70;;
56629;SDS011;42502;40.732;-74.254;2023-04-28T10:13:51;0.70;;;0.63;;
56629;SDS011;42502;40.732;-74.254;2023-04-28T10:15:53;1.77;;;0.57;;
56629;SDS011;42502;40.732;-74.254;2023-04-28T10:17:54;0.88;;;0.75;;
56629;SDS011;42502;40.732;-74.254;2023-04-28T10:19:56;0.82;;;0.60;;
56629;SDS011;42502;40.732;-74.254;2023-04-28T10:24:07;0.70;;;0.50;;
56629;SDS011;42502;40.732;-74.254;2023-04-28T10:26:14;1.50;;;0.70;;
56629;SDS011;42502;40.732;-74.254;2023-04-28T10:28:20;4.38;;;0.80;;
56629;SDS011;42502;40.732;-74.254;2023-04-28T10:30:22;1.20;;;0.60;;
56629;SDS011;42502;40.732;-74.254;2023-04-28T10:32:25;1.27;;;0.68;;
56629;SDS011;42502;40.732;-74.254;2023-04-28T10:34:27;2.22;;;0.60;;
56629;SDS011;42502;40.732;-74.254;2023-04-28T10:39:09;1.02;;;0.55;;
56629;SDS011;42502;40.732;-74.254;2023-04-28T10:41:30;1.55;;;0.60;;
56629;SDS011;42502;40.732;-74.254;2023-04-28T10:43:32;0.88;;;0.60;;
56629;SDS011;42502;40.732;-74.254;2023-04-28T10:47:59;0.80;;;0.60;;
56629;SDS011;42502;40.732;-74.254;2023-04-28T10:50:06;1.27;;;0.60;;
56629;SDS011;42502;40.732;-74.254;2023-04-28T10:54:39;1.45;;;0.60;;
56629;SDS011;42502;40.732;-74.254;2023-04-28T10:56:40;2.38;;;0.70;;
56629;SDS011;42502;40.732;-74.254;2023-04-28T10:59:23;3.53;;;0.70;;
56629;SDS011;42502;40.732;-74.254;2023-04-28T11:01:30;0.90;;;0.60;;
56629;SDS011;42502;40.732;-74.254;2023-04-28T11:08:30;0.57;;;0.55;;
56629;SDS011;42502;40.732;-74.254;2023-04-28T11:13:27;2.53;;;0.60;;
56629;SDS011;42502;40.732;-74.254;2023-04-28T11:15:33;1.20;;;0.77;;
56629;SDS011;42502;40.732;-74.254;2023-04-28T11:17:38;2.95;;;0.77;;
56629;SDS011;42502;40.732;-74.254;2023-04-28T11:19:43;3.42;;;0.77;;
56629;SDS011;42502;40.732;-74.254;2023-04-28T11:21:48;2.17;;;0.70;;
56629;SDS011;42502;40.732;-74.254;2023-04-28T11:23:49;2.28;;;0.80;;
56629;SDS011;42502;40.732;-74.254;2023-04-28T11:25:53;2.95;;;0.70;;
56629;SDS011;42502;40.732;-74.254;2023-04-28T11:28:01;1.52;;;0.63;;
56629;SDS011;42502;40.732;-74.254;2023-04-28T11:30:18;6.25;;;1.00;;
56629;SDS011;42502;40.732;-74.254;2023-04-28T11:32:26;1.75;;;0.60;;
56629;SDS011;42502;40.732;-74.254;2023-04-28T11:34:29;1.23;;;0.70;;
56629;SDS011;42502;40.732;-74.254;2023-04-28T11:36:30;1.60;;;0.75;;
56629;SDS011;42502;40.732;-74.254;2023-04-28T11:38:42;1.70;;;0.68;;
56629;SDS011;42502;40.732;-74.254;2023-04-28T11:41:04;1.38;;;0.70;;
56629;SDS011;42502;40.732;-74.254;2023-04-28T11:43:04;2.83;;;0.70;;
56629;SDS011;42502;40.732;-74.254;2023-04-28T11:45:06;3.15;;;0.93;;
56629;SDS011;42502;40.732;-74.254;2023-04-28T11:47:11;3.17;;;0.80;;
56629;SDS011;42502;40.732;-74.254;2023-04-28T11:49:12;3.95;;;0.65;;
56629;SDS011;42502;40.732;-74.254;2023-04-28T11:51:27;3.60;;;0.63;;
56629;SDS011;42502;40.732;-74.254;2023-04-28T11:53:44;3.38;;;0.70;;
56629;SDS011;42502;40.732;-74.254;2023-04-28T11:55:45;1.67;;;0.70;;
56629;SDS011;42502;40.732;-74.254;2023-04-28T11:57:46;1.55;;;0.90;;
56629;SDS011;42502;40.732;-74.254;2023-04-28T11:59:47;2.30;;;0.65;;
56629;SDS011;42502;40.732;-74.254;2023-04-28T12:01:50;4.32;;;0.88;;
56629;SDS011;42502;40.732;-74.254;2023-04-28T12:03:51;4.20;;;0.70;;
56629;SDS011;42502;40.732;-74.254;2023-04-28T12:05:52;3.50;;;0.63;;
56629;SDS011;42502;40.732;-74.254;2023-04-28T12:07:56;2.45;;;0.80;;
56629;SDS011;42502;40.732;-74.254;2023-04-28T12:10:10;1.38;;;0.70;;
56629;SDS011;42502;40.732;-74.254;2023-04-28T12:12:28;3.25;;;0.60;;
56629;SDS011;42502;40.732;-74.254;2023-04-28T12:14:31;1.70;;;0.70;;
56629;SDS011;42502;40.732;-74.254;2023-04-28T12:16:52;1.23;;;0.60;;